sensor_id;sensor_type;location;lat;lon;timestamp;pressure;altitude;pressure_sealevel;temperature;humidity
59104;BME280;51449;51.676;5.812;2023-01-25T00:44:24;103684.78;;;1.59;72.33
59104;BME280;51449;51.676;5.812;2023-01-25T00:46:46;103676.19;;;1.56;72.55
59104;BME280;51449;51.676;5.812;2023-01-25T00:49:20;103672.44;;;1.57;71.91
59104;BME280;51449;51.676;5.812;2023-01-25T00:51:47;103667.38;;;1.54;72.49
59104;BME280;51449;51.676;5.812;2023-01-25T00:54:10;103672.44;;;1.57;72.40
59104;BME280;51449;51.676;5.812;2023-01-25T00:56:32;103670.75;;;1.56;72.16
59104;BME280;51449;51.676;5.812;2023-01-25T00:58:58;103681.22;;;1.59;72.43
59104;BME280;51449;51.676;5.812;2023-01-25T01:02:20;103671.59;;;1.63;72.00
59104;BME280;51449;51.676;5.812;2023-01-25T01:04:56;103667.66;;;1.65;72.67
59104;BME280;51449;51.676;5.812;2023-01-25T01:10:42;103667.44;;;1.67;71.82
59104;BME280;51449;51.676;5.812;2023-01-25T01:13:13;103666.41;;;1.68;72.25
59104;BME280;51449;51.676;5.812;2023-01-25T01:16:11;103671.66;;;1.69;71.64
59104;BME280;51449;51.676;5.812;2023-01-25T01:18:57;103672.66;;;1.62;71.53
59104;BME280;51449;51.676;5.812;2023-01-25T01:21:44;103668.03;;;1.56;71.66
59104;BME280;51449;51.676;5.812;2023-01-25T01:24:27;103671.16;;;1.53;71.55
59104;BME280;51449;51.676;5.812;2023-01-25T01:30:59;103667.59;;;1.52;71.84
59104;BME280;51449;51.676;5.812;2023-01-25T01:34:14;103669.47;;;1.45;72.10
59104;BME280;51449;51.676;5.812;2023-01-25T01:36:42;103670.47;;;1.44;71.62
59104;BME280;51449;51.676;5.812;2023-01-25T01:39:14;103667.75;;;1.37;71.36
59104;BME280;51449;51.676;5.812;2023-01-25T01:42:14;103668.34;;;1.33;71.94
59104;BME280;51449;51.676;5.812;2023-01-25T01:45:58;103659.16;;;1.34;71.54
59104;BME280;51449;51.676;5.812;2023-01-25T01:49:39;103664.16;;;1.30;71.74
59104;BME280;51449;51.676;5.812;2023-01-25T01:52:34;103663.72;;;1.26;72.06
59104;BME280;51449;51.676;5.812;2023-01-25T01:55:52;103673.75;;;1.26;72.29
59104;BME280;51449;51.676;5.812;2023-01-25T01:59:08;103667.28;;;1.27;71.84
59104;BME280;51449;51.676;5.812;2023-01-25T02:06:15;103663.34;;;1.30;72.22
59104;BME280;51449;51.676;5.812;2023-01-25T03:44:01;103578.31;;;1.36;72.37
59104;BME280;51449;51.676;5.812;2023-01-25T03:46:33;103576.22;;;1.38;71.98
59104;BME280;51449;51.676;5.812;2023-01-25T03:50:32;103587.97;;;1.45;72.84
59104;BME280;51449;51.676;5.812;2023-01-25T03:53:08;103580.63;;;1.45;72.78
59104;BME280;51449;51.676;5.812;2023-01-25T03:56:06;103584.00;;;1.47;72.46
59104;BME280;51449;51.676;5.812;2023-01-25T03:59:00;103590.06;;;1.49;72.63
59104;BME280;51449;51.676;5.812;2023-01-25T04:01:32;103590.69;;;1.52;72.33
59104;BME280;51449;51.676;5.812;2023-01-25T04:04:05;103585.88;;;1.54;72.57
59104;BME280;51449;51.676;5.812;2023-01-25T04:06:45;103581.31;;;1.54;72.28
59104;BME280;51449;51.676;5.812;2023-01-25T04:28:19;103559.13;;;1.50;72.09
59104;BME280;51449;51.676;5.812;2023-01-25T04:31:02;103566.25;;;1.52;72.59
59104;BME280;51449;51.676;5.812;2023-01-25T04:33:34;103563.72;;;1.50;72.29
59104;BME280;51449;51.676;5.812;2023-01-25T04:36:05;103555.38;;;1.52;72.25
59104;BME280;51449;51.676;5.812;2023-01-25T04:38:38;103554.13;;;1.54;72.13
59104;BME280;51449;51.676;5.812;2023-01-25T04:41:09;103553.06;;;1.55;72.18
59104;BME280;51449;51.676;5.812;2023-01-25T04:43:39;103553.72;;;1.57;72.33
59104;BME280;51449;51.676;5.812;2023-01-25T04:46:16;103548.47;;;1.56;72.56
59104;BME280;51449;51.676;5.812;2023-01-25T04:50:00;103547.44;;;1.57;72.82
59104;BME280;51449;51.676;5.812;2023-01-25T04:53:04;103546.84;;;1.61;72.45
59104;BME280;51449;51.676;5.812;2023-01-25T04:56:03;103534.91;;;1.62;72.12
59104;BME280;51449;51.676;5.812;2023-01-25T04:58:50;103539.91;;;1.65;72.36
59104;BME280;51449;51.676;5.812;2023-01-25T05:01:32;103537.22;;;1.65;72.06
59104;BME280;51449;51.676;5.812;2023-01-25T05:04:05;103540.16;;;1.64;72.55
59104;BME280;51449;51.676;5.812;2023-01-25T05:07:10;103529.66;;;1.61;72.17
59104;BME280;51449;51.676;5.812;2023-01-25T05:09:41;103532.38;;;1.61;72.41
59104;BME280;51449;51.676;5.812;2023-01-25T05:12:14;103528.19;;;1.58;72.30
59104;BME280;51449;51.676;5.812;2023-01-25T05:15:07;103524.44;;;1.53;72.97
59104;BME280;51449;51.676;5.812;2023-01-25T05:17:39;103530.28;;;1.49;73.15
59104;BME280;51449;51.676;5.812;2023-01-25T05:20:59;103532.38;;;1.47;72.96
59104;BME280;51449;51.676;5.812;2023-01-25T05:26:40;103531.94;;;1.44;73.13
59104;BME280;51449;51.676;5.812;2023-01-25T06:27:27;103512.19;;;1.02;72.29
59104;BME280;51449;51.676;5.812;2023-01-25T06:29:52;103516.59;;;1.03;72.08
59104;BME280;51449;51.676;5.812;2023-01-25T06:32:21;103518.25;;;1.04;72.23
59104;BME280;51449;51.676;5.812;2023-01-25T06:35:15;103509.69;;;1.00;72.66
59104;BME280;51449;51.676;5.812;2023-01-25T06:38:09;103513.41;;;0.99;72.82
59104;BME280;51449;51.676;5.812;2023-01-25T07:24:49;103509.97;;;0.77;72.60
59104;BME280;51449;51.676;5.812;2023-01-25T07:27:15;103511.44;;;0.73;72.21
59104;BME280;51449;51.676;5.812;2023-01-25T07:29:39;103511.63;;;0.72;73.02
59104;BME280;51449;51.676;5.812;2023-01-25T07:32:05;103507.50;;;0.76;73.30
59104;BME280;51449;51.676;5.812;2023-01-25T07:34:31;103504.59;;;0.84;73.33
59104;BME280;51449;51.676;5.812;2023-01-25T07:36:54;103490.84;;;0.92;72.48
59104;BME280;51449;51.676;5.812;2023-01-25T07:39:18;103493.38;;;0.94;72.91
59104;BME280;51449;51.676;5.812;2023-01-25T07:41:41;103485.44;;;0.99;72.65
59104;BME280;51449;51.676;5.812;2023-01-25T07:44:06;103483.16;;;1.02;72.92
59104;BME280;51449;51.676;5.812;2023-01-25T07:46:34;103493.41;;;1.00;72.78
59104;BME280;51449;51.676;5.812;2023-01-25T07:48:57;103495.88;;;1.02;72.83
59104;BME280;51449;51.676;5.812;2023-01-25T07:51:22;103482.13;;;1.03;73.00
59104;BME280;51449;51.676;5.812;2023-01-25T07:53:45;103494.25;;;1.08;73.06
59104;BME280;51449;51.676;5.812;2023-01-25T07:56:08;103492.59;;;1.13;72.88
59104;BME280;51449;51.676;5.812;2023-01-25T07:58:32;103493.88;;;1.17;72.70
59104;BME280;51449;51.676;5.812;2023-01-25T08:00:54;103497.00;;;1.21;72.85
59104;BME280;51449;51.676;5.812;2023-01-25T08:03:16;103500.16;;;1.24;73.32
59104;BME280;51449;51.676;5.812;2023-01-25T08:05:43;103495.13;;;1.28;73.30
59104;BME280;51449;51.676;5.812;2023-01-25T08:08:05;103501.84;;;1.32;72.93
59104;BME280;51449;51.676;5.812;2023-01-25T08:10:27;103488.91;;;1.34;72.71
59104;BME280;51449;51.676;5.812;2023-01-25T08:12:49;103490.97;;;1.32;72.65
59104;BME280;51449;51.676;5.812;2023-01-25T08:15:12;103481.97;;;1.25;72.09
59104;BME280;51449;51.676;5.812;2023-01-25T08:17:34;103481.31;;;1.16;72.28
59104;BME280;51449;51.676;5.812;2023-01-25T08:20:00;103491.34;;;1.16;72.46
59104;BME280;51449;51.676;5.812;2023-01-25T08:22:23;103476.31;;;1.13;72.59
59104;BME280;51449;51.676;5.812;2023-01-25T08:24:45;103479.22;;;1.12;72.83
59104;BME280;51449;51.676;5.812;2023-01-25T08:27:11;103483.41;;;1.14;72.18
59104;BME280;51449;51.676;5.812;2023-01-25T08:29:33;103485.72;;;1.17;72.54
59104;BME280;51449;51.676;5.812;2023-01-25T08:31:55;103484.66;;;1.18;72.55
59104;BME280;51449;51.676;5.812;2023-01-25T08:34:17;103476.53;;;1.18;72.54
59104;BME280;51449;51.676;5.812;2023-01-25T08:36:39;103468.56;;;1.17;72.07
59104;BME280;51449;51.676;5.812;2023-01-25T08:39:04;103470.88;;;1.13;72.54
59104;BME280;51449;51.676;5.812;2023-01-25T08:41:29;103472.94;;;1.11;72.64
59104;BME280;51449;51.676;5.812;2023-01-25T08:43:53;103474.00;;;1.10;72.62
59104;BME280;51449;51.676;5.812;2023-01-25T08:46:16;103474.59;;;1.12;72.32
59104;BME280;51449;51.676;5.812;2023-01-25T08:48:38;103478.56;;;1.10;72.26
59104;BME280;51449;51.676;5.812;2023-01-25T08:51:01;103473.16;;;1.10;72.37
59104;BME280;51449;51.676;5.812;2023-01-25T08:53:23;103476.91;;;1.09;72.83
59104;BME280;51449;51.676;5.812;2023-01-25T08:55:48;103471.06;;;1.05;72.13
59104;BME280;51449;51.676;5.812;2023-01-25T08:58:11;103470.00;;;1.06;72.50
59104;BME280;51449;51.676;5.812;2023-01-25T09:00:38;103468.56;;;1.10;72.79
59104;BME280;51449;51.676;5.812;2023-01-25T09:03:00;103469.19;;;1.12;72.91
59104;BME280;51449;51.676;5.812;2023-01-25T09:05:22;103462.28;;;1.10;72.34
59104;BME280;51449;51.676;5.812;2023-01-25T09:07:44;103456.22;;;1.01;71.74
59104;BME280;51449;51.676;5.812;2023-01-25T09:10:06;103448.06;;;0.94;71.88
59104;BME280;51449;51.676;5.812;2023-01-25T09:12:29;103450.72;;;0.88;72.03
59104;BME280;51449;51.676;5.812;2023-01-25T09:14:51;103449.91;;;0.87;72.52
59104;BME280;51449;51.676;5.812;2023-01-25T09:17:13;103447.00;;;0.89;72.43
59104;BME280;51449;51.676;5.812;2023-01-25T09:19:35;103448.28;;;0.93;72.09
59104;BME280;51449;51.676;5.812;2023-01-25T09:21:57;103454.72;;;0.92;72.07
59104;BME280;51449;51.676;5.812;2023-01-25T09:24:19;103450.72;;;0.88;72.34
59104;BME280;51449;51.676;5.812;2023-01-25T09:26:41;103448.25;;;0.86;72.14
59104;BME280;51449;51.676;5.812;2023-01-25T09:29:10;103447.00;;;0.89;72.63
59104;BME280;51449;51.676;5.812;2023-01-25T09:31:33;103450.13;;;0.92;72.33
59104;BME280;51449;51.676;5.812;2023-01-25T09:34:30;103456.41;;;0.93;72.89
59104;BME280;51449;51.676;5.812;2023-01-25T09:36:52;103451.59;;;0.95;72.57
59104;BME280;51449;51.676;5.812;2023-01-25T09:39:13;103449.75;;;0.95;72.57
59104;BME280;51449;51.676;5.812;2023-01-25T09:42:01;103443.66;;;1.00;72.83
59104;BME280;51449;51.676;5.812;2023-01-25T09:47:55;103443.91;;;0.98;72.22
59104;BME280;51449;51.676;5.812;2023-01-25T09:55:32;103441.34;;;0.83;72.56
59104;BME280;51449;51.676;5.812;2023-01-25T09:57:56;103445.53;;;0.86;72.27
59104;BME280;51449;51.676;5.812;2023-01-25T10:00:23;103443.66;;;0.87;72.21
59104;BME280;51449;51.676;5.812;2023-01-25T10:03:08;103433.00;;;0.92;72.94
59104;BME280;51449;51.676;5.812;2023-01-25T10:05:47;103441.78;;;0.94;72.63
59104;BME280;51449;51.676;5.812;2023-01-25T10:08:35;103435.72;;;0.92;72.98
59104;BME280;51449;51.676;5.812;2023-01-25T10:11:40;103442.22;;;0.91;73.24
59104;BME280;51449;51.676;5.812;2023-01-25T10:14:12;103430.91;;;0.87;72.72
59104;BME280;51449;51.676;5.812;2023-01-25T10:21:52;103419.22;;;0.87;72.58
59104;BME280;51449;51.676;5.812;2023-01-25T10:27:08;103413.59;;;0.95;72.54
59104;BME280;51449;51.676;5.812;2023-01-25T10:29:43;103420.94;;;1.01;73.13
59104;BME280;51449;51.676;5.812;2023-01-25T10:32:14;103421.56;;;1.03;72.63
59104;BME280;51449;51.676;5.812;2023-01-25T10:34:47;103408.81;;;1.03;72.88
59104;BME280;51449;51.676;5.812;2023-01-25T10:37:22;103401.31;;;1.05;72.72
59104;BME280;51449;51.676;5.812;2023-01-25T10:39:52;103402.97;;;1.06;73.23
59104;BME280;51449;51.676;5.812;2023-01-25T10:42:19;103393.81;;;1.08;72.89
59104;BME280;51449;51.676;5.812;2023-01-25T10:44:44;103394.00;;;1.06;73.02
59104;BME280;51449;51.676;5.812;2023-01-25T10:47:16;103390.88;;;1.09;72.83
59104;BME280;51449;51.676;5.812;2023-01-25T10:49:54;103384.81;;;1.07;73.12
59104;BME280;51449;51.676;5.812;2023-01-25T10:54:48;103368.50;;;0.94;72.66
59104;BME280;51449;51.676;5.812;2023-01-25T10:57:28;103355.13;;;0.85;72.86
59104;BME280;51449;51.676;5.812;2023-01-25T10:59:51;103351.16;;;0.81;72.93
59104;BME280;51449;51.676;5.812;2023-01-25T11:04:56;103338.00;;;0.85;73.52
59104;BME280;51449;51.676;5.812;2023-01-25T11:07:27;103336.75;;;0.88;73.29
59104;BME280;51449;51.676;5.812;2023-01-25T11:09:51;103328.22;;;0.91;73.44
59104;BME280;51449;51.676;5.812;2023-01-25T11:12:18;103319.84;;;0.92;73.09
59104;BME280;51449;51.676;5.812;2023-01-25T11:14:41;103318.00;;;0.93;73.27
59104;BME280;51449;51.676;5.812;2023-01-25T11:17:04;103320.91;;;0.98;73.09
59104;BME280;51449;51.676;5.812;2023-01-25T11:19:38;103328.00;;;0.99;73.23
59104;BME280;51449;51.676;5.812;2023-01-25T11:22:19;103317.56;;;1.02;72.93
59104;BME280;51449;51.676;5.812;2023-01-25T11:24:44;103310.47;;;1.08;72.94
59104;BME280;51449;51.676;5.812;2023-01-25T11:29:34;103291.44;;;1.21;73.19
59104;BME280;51449;51.676;5.812;2023-01-25T11:31:56;103283.13;;;1.30;72.88
59104;BME280;51449;51.676;5.812;2023-01-25T11:34:26;103284.97;;;1.36;73.25
59104;BME280;51449;51.676;5.812;2023-01-25T11:40:16;103267.59;;;1.50;72.92
59104;BME280;51449;51.676;5.812;2023-01-25T11:42:59;103265.72;;;1.50;73.14
59104;BME280;51449;51.676;5.812;2023-01-25T11:46:04;103260.28;;;1.57;72.56
59104;BME280;51449;51.676;5.812;2023-01-25T11:54:55;103237.22;;;1.73;72.49
59104;BME280;51449;51.676;5.812;2023-01-25T12:03:49;103217.88;;;1.49;71.90
59104;BME280;51449;51.676;5.812;2023-01-25T12:06:41;103204.75;;;1.40;71.85
59104;BME280;51449;51.676;5.812;2023-01-25T12:09:23;103194.31;;;1.37;71.67
59104;BME280;51449;51.676;5.812;2023-01-25T12:12:24;103184.91;;;1.39;72.35
59104;BME280;51449;51.676;5.812;2023-01-25T12:24:20;103163.56;;;1.43;72.70
59104;BME280;51449;51.676;5.812;2023-01-25T12:33:02;103140.81;;;1.37;72.62
59104;BME280;51449;51.676;5.812;2023-01-25T12:35:38;103142.91;;;1.35;72.55
59104;BME280;51449;51.676;5.812;2023-01-25T12:38:12;103135.38;;;1.37;72.59
59104;BME280;51449;51.676;5.812;2023-01-25T12:43:57;103122.63;;;1.44;72.80
59104;BME280;51449;51.676;5.812;2023-01-25T12:46:35;103111.97;;;1.43;72.51
59104;BME280;51449;51.676;5.812;2023-01-25T12:49:18;103105.69;;;1.42;73.14
59104;BME280;51449;51.676;5.812;2023-01-25T12:51:47;103099.84;;;1.39;72.66
59104;BME280;51449;51.676;5.812;2023-01-25T12:54:26;103099.25;;;1.37;72.70
59104;BME280;51449;51.676;5.812;2023-01-25T12:57:03;103091.50;;;1.34;72.95
59104;BME280;51449;51.676;5.812;2023-01-25T12:59:42;103089.84;;;1.33;73.20
59104;BME280;51449;51.676;5.812;2023-01-25T13:03:10;103084.00;;;1.29;73.06
59104;BME280;51449;51.676;5.812;2023-01-25T13:06:13;103075.28;;;1.27;72.65
59104;BME280;51449;51.676;5.812;2023-01-25T13:11:40;103083.81;;;1.24;72.44
59104;BME280;51449;51.676;5.812;2023-01-25T13:16:39;103066.91;;;1.28;72.44
59104;BME280;51449;51.676;5.812;2023-01-25T13:21:51;103055.84;;;1.23;72.73
59104;BME280;51449;51.676;5.812;2023-01-25T13:24:21;103063.56;;;1.26;72.03
59104;BME280;51449;51.676;5.812;2023-01-25T13:29:41;103056.44;;;1.32;72.73
59104;BME280;51449;51.676;5.812;2023-01-25T13:32:35;103048.06;;;1.34;72.58
59104;BME280;51449;51.676;5.812;2023-01-25T13:37:28;103040.53;;;1.36;72.36
59104;BME280;51449;51.676;5.812;2023-01-25T13:40:10;103045.16;;;1.35;72.40
59104;BME280;51449;51.676;5.812;2023-01-25T13:43:01;103037.84;;;1.29;72.44
59104;BME280;51449;51.676;5.812;2023-01-25T13:45:40;103032.66;;;1.27;71.98
59104;BME280;51449;51.676;5.812;2023-01-25T13:50:46;103032.69;;;1.21;72.62
59104;BME280;51449;51.676;5.812;2023-01-25T13:55:50;103014.94;;;1.18;72.30
59104;BME280;51449;51.676;5.812;2023-01-25T14:00:59;103006.59;;;1.20;72.44
59104;BME280;51449;51.676;5.812;2023-01-25T14:03:29;103002.19;;;1.19;72.65
59104;BME280;51449;51.676;5.812;2023-01-25T14:05:57;103005.13;;;1.17;72.46
59104;BME280;51449;51.676;5.812;2023-01-25T14:08:21;103007.88;;;1.11;72.76
59104;BME280;51449;51.676;5.812;2023-01-25T14:10:46;103008.25;;;1.14;72.68
59104;BME280;51449;51.676;5.812;2023-01-25T14:13:13;103015.38;;;1.15;72.97
59104;BME280;51449;51.676;5.812;2023-01-25T14:15:36;103016.84;;;1.11;72.95
59104;BME280;51449;51.676;5.812;2023-01-25T14:18:18;103007.66;;;1.12;72.86
59104;BME280;51449;51.676;5.812;2023-01-25T14:20:42;103018.09;;;1.15;72.96
59104;BME280;51449;51.676;5.812;2023-01-25T14:23:23;103008.88;;;1.16;73.26
59104;BME280;51449;51.676;5.812;2023-01-25T14:25:50;103012.88;;;1.14;72.92
59104;BME280;51449;51.676;5.812;2023-01-25T14:28:13;103001.38;;;1.12;73.30
59104;BME280;51449;51.676;5.812;2023-01-25T14:30:35;103006.41;;;1.15;72.50
59104;BME280;51449;51.676;5.812;2023-01-25T14:32:59;103007.41;;;1.20;73.24
59104;BME280;51449;51.676;5.812;2023-01-25T14:38:37;103004.69;;;1.20;73.10
59104;BME280;51449;51.676;5.812;2023-01-25T14:43:35;102998.03;;;1.16;72.32
59104;BME280;51449;51.676;5.812;2023-01-25T14:45:58;102992.84;;;1.15;72.85
59104;BME280;51449;51.676;5.812;2023-01-25T14:48:38;102997.41;;;1.14;72.43
59104;BME280;51449;51.676;5.812;2023-01-25T14:51:05;102991.34;;;1.12;72.89
59104;BME280;51449;51.676;5.812;2023-01-25T14:53:33;102993.47;;;1.10;73.07
59104;BME280;51449;51.676;5.812;2023-01-25T14:55:57;102982.00;;;1.08;72.48
59104;BME280;51449;51.676;5.812;2023-01-25T14:58:23;102985.38;;;1.03;72.38
59104;BME280;51449;51.676;5.812;2023-01-25T15:00:53;102981.41;;;0.99;72.62
59104;BME280;51449;51.676;5.812;2023-01-25T15:03:18;102970.97;;;0.96;72.69
59104;BME280;51449;51.676;5.812;2023-01-25T15:05:44;102964.31;;;0.92;72.87
59104;BME280;51449;51.676;5.812;2023-01-25T15:10:31;102971.00;;;0.90;72.34
59104;BME280;51449;51.676;5.812;2023-01-25T15:13:20;102971.91;;;0.77;72.06
59104;BME280;51449;51.676;5.812;2023-01-25T15:15:56;102974.25;;;0.67;73.03
59104;BME280;51449;51.676;5.812;2023-01-25T15:21:14;102974.00;;;0.68;72.39
59104;BME280;51449;51.676;5.812;2023-01-25T15:23:40;102967.13;;;0.66;72.63
59104;BME280;51449;51.676;5.812;2023-01-25T15:26:19;102971.97;;;0.57;72.90
59104;BME280;51449;51.676;5.812;2023-01-25T15:28:53;102967.19;;;0.52;73.39
59104;BME280;51449;51.676;5.812;2023-01-25T15:31:18;102970.94;;;0.51;73.60
59104;BME280;51449;51.676;5.812;2023-01-25T15:33:43;102967.19;;;0.52;73.25
59104;BME280;51449;51.676;5.812;2023-01-25T15:36:05;102961.56;;;0.47;73.41
59104;BME280;51449;51.676;5.812;2023-01-25T15:38:30;102952.38;;;0.48;73.69
59104;BME280;51449;51.676;5.812;2023-01-25T15:40:51;102951.34;;;0.49;73.53
59104;BME280;51449;51.676;5.812;2023-01-25T15:43:15;102953.00;;;0.50;73.71
59104;BME280;51449;51.676;5.812;2023-01-25T15:45:47;102964.03;;;0.55;73.86
59104;BME280;51449;51.676;5.812;2023-01-25T15:48:34;102955.72;;;0.57;73.87
59104;BME280;51449;51.676;5.812;2023-01-25T15:50:58;102956.53;;;0.57;74.06
59104;BME280;51449;51.676;5.812;2023-01-25T15:53:20;102952.13;;;0.63;74.03
59104;BME280;51449;51.676;5.812;2023-01-25T15:55:44;102962.59;;;0.59;73.81
59104;BME280;51449;51.676;5.812;2023-01-25T15:58:15;102955.91;;;0.55;73.16
59104;BME280;51449;51.676;5.812;2023-01-25T16:00:44;102954.28;;;0.48;73.45
59104;BME280;51449;51.676;5.812;2023-01-25T16:03:06;102954.50;;;0.39;73.67
59104;BME280;51449;51.676;5.812;2023-01-25T16:05:29;102942.63;;;0.34;73.31
59104;BME280;51449;51.676;5.812;2023-01-25T16:07:50;102950.34;;;0.30;73.44
59104;BME280;51449;51.676;5.812;2023-01-25T16:10:22;102954.97;;;0.30;73.72
59104;BME280;51449;51.676;5.812;2023-01-25T16:12:45;102944.13;;;0.23;73.44
59104;BME280;51449;51.676;5.812;2023-01-25T16:15:07;102947.06;;;0.15;73.48
59104;BME280;51449;51.676;5.812;2023-01-25T16:17:29;102945.81;;;0.11;73.78
59104;BME280;51449;51.676;5.812;2023-01-25T16:19:51;102935.16;;;0.09;73.88
59104;BME280;51449;51.676;5.812;2023-01-25T16:22:14;102946.25;;;0.08;74.10
59104;BME280;51449;51.676;5.812;2023-01-25T16:24:37;102947.06;;;0.02;74.55
59104;BME280;51449;51.676;5.812;2023-01-25T16:27:00;102936.22;;;0.02;74.50
59104;BME280;51449;51.676;5.812;2023-01-25T16:29:22;102943.09;;;-0.03;74.13
59104;BME280;51449;51.676;5.812;2023-01-25T16:31:46;102936.66;;;-0.08;74.17
59104;BME280;51449;51.676;5.812;2023-01-25T16:34:08;102942.50;;;-0.11;74.88
59104;BME280;51449;51.676;5.812;2023-01-25T16:36:30;102943.97;;;-0.09;74.75
59104;BME280;51449;51.676;5.812;2023-01-25T16:38:52;102947.50;;;-0.02;74.60
59104;BME280;51449;51.676;5.812;2023-01-25T16:41:14;102947.91;;;0.02;75.10
59104;BME280;51449;51.676;5.812;2023-01-25T16:43:36;102948.31;;;0.06;74.76
59104;BME280;51449;51.676;5.812;2023-01-25T16:46:04;102947.06;;;0.08;75.16
59104;BME280;51449;51.676;5.812;2023-01-25T16:48:26;102945.19;;;0.09;75.24
59104;BME280;51449;51.676;5.812;2023-01-25T16:50:49;102943.94;;;0.05;74.68
59104;BME280;51449;51.676;5.812;2023-01-25T16:53:12;102947.06;;;0.02;74.72
59104;BME280;51449;51.676;5.812;2023-01-25T16:55:35;102949.16;;;-0.01;75.06
59104;BME280;51449;51.676;5.812;2023-01-25T16:57:58;102953.34;;;-0.05;74.60
59104;BME280;51449;51.676;5.812;2023-01-25T17:00:20;102951.47;;;-0.04;75.33
59104;BME280;51449;51.676;5.812;2023-01-25T17:02:42;102954.59;;;-0.07;75.14
59104;BME280;51449;51.676;5.812;2023-01-25T17:05:20;102946.91;;;-0.17;75.15
59104;BME280;51449;51.676;5.812;2023-01-25T17:07:42;102947.91;;;-0.18;75.56
59104;BME280;51449;51.676;5.812;2023-01-25T17:10:04;102954.16;;;-0.17;75.70
59104;BME280;51449;51.676;5.812;2023-01-25T17:12:28;102944.19;;;-0.17;75.55
59104;BME280;51449;51.676;5.812;2023-01-25T17:14:50;102937.91;;;-0.17;75.78
59104;BME280;51449;51.676;5.812;2023-01-25T17:17:12;102936.66;;;-0.15;75.79
59104;BME280;51449;51.676;5.812;2023-01-25T17:19:34;102931.03;;;-0.13;76.23
59104;BME280;51449;51.676;5.812;2023-01-25T17:21:56;102931.47;;;-0.10;76.38
59104;BME280;51449;51.676;5.812;2023-01-25T17:24:19;102930.22;;;-0.07;76.31
59104;BME280;51449;51.676;5.812;2023-01-25T17:26:42;102922.47;;;-0.10;76.82
59104;BME280;51449;51.676;5.812;2023-01-25T17:29:04;102918.31;;;-0.13;76.81
59104;BME280;51449;51.676;5.812;2023-01-25T17:31:29;102916.22;;;-0.11;76.69
59104;BME280;51449;51.676;5.812;2023-01-25T17:33:54;102906.22;;;-0.10;76.54
59104;BME280;51449;51.676;5.812;2023-01-25T17:36:16;102896.84;;;-0.08;76.51
59104;BME280;51449;51.676;5.812;2023-01-25T17:38:39;102892.88;;;-0.05;76.20
59104;BME280;51449;51.676;5.812;2023-01-25T17:41:10;102878.31;;;-0.04;76.47
59104;BME280;51449;51.676;5.812;2023-01-25T17:43:33;102875.78;;;-0.06;76.53
59104;BME280;51449;51.676;5.812;2023-01-25T17:45:56;102877.47;;;-0.05;76.68
59104;BME280;51449;51.676;5.812;2023-01-25T17:48:18;102867.22;;;-0.03;76.74
59104;BME280;51449;51.676;5.812;2023-01-25T17:50:41;102871.19;;;-0.05;76.81
59104;BME280;51449;51.676;5.812;2023-01-25T17:53:04;102866.44;;;-0.10;77.00
59104;BME280;51449;51.676;5.812;2023-01-25T17:55:27;102868.28;;;-0.10;76.67
59104;BME280;51449;51.676;5.812;2023-01-25T17:57:50;102859.34;;;-0.11;75.92
59104;BME280;51449;51.676;5.812;2023-01-25T18:00:13;102844.97;;;-0.11;75.89
59104;BME280;51449;51.676;5.812;2023-01-25T18:02:36;102827.44;;;-0.09;75.90
59104;BME280;51449;51.676;5.812;2023-01-25T18:04:57;102829.09;;;-0.08;75.88
59104;BME280;51449;51.676;5.812;2023-01-25T18:07:20;102823.28;;;-0.11;76.02
59104;BME280;51449;51.676;5.812;2023-01-25T18:09:41;102815.38;;;-0.13;76.37
59104;BME280;51449;51.676;5.812;2023-01-25T18:12:03;102824.13;;;-0.11;76.32
59104;BME280;51449;51.676;5.812;2023-01-25T18:14:26;102822.03;;;-0.09;76.48
59104;BME280;51449;51.676;5.812;2023-01-25T18:16:50;102813.72;;;-0.07;76.36
59104;BME280;51449;51.676;5.812;2023-01-25T18:19:12;102802.81;;;-0.01;76.05
59104;BME280;51449;51.676;5.812;2023-01-25T18:21:35;102800.31;;;0.05;76.43
59104;BME280;51449;51.676;5.812;2023-01-25T18:24:03;102790.50;;;0.10;76.08
59104;BME280;51449;51.676;5.812;2023-01-25T18:26:35;102782.75;;;0.14;76.63
59104;BME280;51449;51.676;5.812;2023-01-25T18:31:28;102774.44;;;0.09;76.35
59104;BME280;51449;51.676;5.812;2023-01-25T18:33:50;102770.09;;;0.08;75.96
59104;BME280;51449;51.676;5.812;2023-01-25T18:36:14;102759.66;;;0.05;76.41
59104;BME280;51449;51.676;5.812;2023-01-25T18:38:37;102755.28;;;0.04;76.67
59104;BME280;51449;51.676;5.812;2023-01-25T18:41:00;102761.72;;;0.09;76.23
59104;BME280;51449;51.676;5.812;2023-01-25T18:43:26;102763.41;;;0.10;76.20
59104;BME280;51449;51.676;5.812;2023-01-25T18:45:54;102764.44;;;0.09;76.13
59104;BME280;51449;51.676;5.812;2023-01-25T18:48:17;102777.34;;;0.07;76.10
59104;BME280;51449;51.676;5.812;2023-01-25T18:50:41;102785.94;;;-0.03;75.90
59104;BME280;51449;51.676;5.812;2023-01-25T18:53:04;102792.22;;;-0.02;76.12
59104;BME280;51449;51.676;5.812;2023-01-25T18:55:26;102785.34;;;-0.05;76.24
59104;BME280;51449;51.676;5.812;2023-01-25T18:57:48;102779.94;;;-0.05;76.17
59104;BME280;51449;51.676;5.812;2023-01-25T19:00:10;102789.09;;;-0.06;76.01
59104;BME280;51449;51.676;5.812;2023-01-25T19:02:35;102776.41;;;-0.12;75.43
59104;BME280;51449;51.676;5.812;2023-01-25T19:04:58;102759.75;;;-0.15;76.08
59104;BME280;51449;51.676;5.812;2023-01-25T19:07:21;102743.72;;;-0.17;76.06
59104;BME280;51449;51.676;5.812;2023-01-25T19:09:43;102733.06;;;-0.12;76.25
59104;BME280;51449;51.676;5.812;2023-01-25T19:12:05;102734.91;;;-0.06;76.16
59104;BME280;51449;51.676;5.812;2023-01-25T19:14:27;102737.41;;;-0.04;76.47
59104;BME280;51449;51.676;5.812;2023-01-25T19:16:49;102739.28;;;-0.05;76.42
59104;BME280;51449;51.676;5.812;2023-01-25T19:19:12;102740.94;;;-0.04;76.53
59104;BME280;51449;51.676;5.812;2023-01-25T19:21:34;102746.56;;;-0.05;76.84
59104;BME280;51449;51.676;5.812;2023-01-25T19:23:56;102742.00;;;-0.05;77.00
59104;BME280;51449;51.676;5.812;2023-01-25T19:26:20;102745.13;;;-0.08;76.50